sensor_id;sensor_type;location;lat;lon;timestamp;pressure;altitude;pressure_sealevel;temperature;humidity
34235;BME280;20500;49.856;20.290;2022-11-11T00:01:24;100332.48;;;3.35;82.89
34235;BME280;20500;49.856;20.290;2022-11-11T00:04:30;100332.70;;;3.40;82.93
34235;BME280;20500;49.856;20.290;2022-11-11T00:07:36;100333.97;;;3.42;82.69
34235;BME280;20500;49.856;20.290;2022-11-11T00:10:41;100344.04;;;3.39;82.60
34235;BME280;20500;49.856;20.290;2022-11-11T00:13:47;100350.44;;;3.35;82.62
34235;BME280;20500;49.856;20.290;2022-11-11T00:16:53;100349.55;;;3.32;82.64
34235;BME280;20500;49.856;20.290;2022-11-11T00:20:31;100348.89;;;3.37;82.99
34235;BME280;20500;49.856;20.290;2022-11-11T00:23:55;100356.73;;;3.40;82.79
34235;BME280;20500;49.856;20.290;2022-11-11T00:27:18;100358.87;;;3.40;82.71
34235;BME280;20500;49.856;20.290;2022-11-11T00:30:24;100364.91;;;3.38;82.70
34235;BME280;20500;49.856;20.290;2022-11-11T00:33:30;100368.78;;;3.34;82.68
34235;BME280;20500;49.856;20.290;2022-11-11T00:36:37;100372.27;;;3.33;82.62
34235;BME280;20500;49.856;20.290;2022-11-11T00:39:48;100363.91;;;3.32;82.84
34235;BME280;20500;49.856;20.290;2022-11-11T00:42:54;100364.13;;;3.31;82.80
34235;BME280;20500;49.856;20.290;2022-11-11T00:46:04;100363.81;;;3.31;82.77
34235;BME280;20500;49.856;20.290;2022-11-11T00:49:28;100365.86;;;3.30;82.58
34235;BME280;20500;49.856;20.290;2022-11-11T00:52:52;100364.11;;;3.27;82.58
34235;BME280;20500;49.856;20.290;2022-11-11T00:55:58;100361.50;;;3.23;82.50
34235;BME280;20500;49.856;20.290;2022-11-11T00:59:06;100363.31;;;3.20;82.56
34235;BME280;20500;49.856;20.290;2022-11-11T01:02:13;100355.42;;;3.17;82.49
34235;BME280;20500;49.856;20.290;2022-11-11T01:05:19;100353.81;;;3.14;82.53
34235;BME280;20500;49.856;20.290;2022-11-11T01:08:25;100352.27;;;3.13;82.46
34235;BME280;20500;49.856;20.290;2022-11-11T01:11:32;100352.56;;;3.14;82.70
34235;BME280;20500;49.856;20.290;2022-11-11T01:14:38;100350.83;;;3.16;82.69
34235;BME280;20500;49.856;20.290;2022-11-11T01:17:44;100351.52;;;3.14;82.45
34235;BME280;20500;49.856;20.290;2022-11-11T01:20:58;100346.45;;;3.07;82.38
34235;BME280;20500;49.856;20.290;2022-11-11T01:24:05;100346.25;;;3.01;82.38
34235;BME280;20500;49.856;20.290;2022-11-11T01:27:09;100344.68;;;2.98;82.43
34235;BME280;20500;49.856;20.290;2022-11-11T01:30:15;100346.11;;;2.96;82.55
34235;BME280;20500;49.856;20.290;2022-11-11T01:33:19;100341.33;;;2.92;82.48
34235;BME280;20500;49.856;20.290;2022-11-11T01:36:26;100344.34;;;2.89;82.47
34235;BME280;20500;49.856;20.290;2022-11-11T01:39:32;100346.67;;;2.89;82.50
34235;BME280;20500;49.856;20.290;2022-11-11T01:42:48;100340.19;;;2.90;82.52
34235;BME280;20500;49.856;20.290;2022-11-11T01:45:59;100340.31;;;2.91;82.59
34235;BME280;20500;49.856;20.290;2022-11-11T01:49:20;100337.11;;;2.93;82.60
34235;BME280;20500;49.856;20.290;2022-11-11T01:52:32;100340.66;;;2.97;82.69
34235;BME280;20500;49.856;20.290;2022-11-11T01:55:41;100344.35;;;3.00;82.84
34235;BME280;20500;49.856;20.290;2022-11-11T01:58:48;100345.51;;;3.02;82.55
34235;BME280;20500;49.856;20.290;2022-11-11T02:01:54;100346.36;;;3.00;82.66
34235;BME280;20500;49.856;20.290;2022-11-11T02:05:04;100345.02;;;3.01;82.78
34235;BME280;20500;49.856;20.290;2022-11-11T02:08:31;100345.70;;;3.02;82.70
34235;BME280;20500;49.856;20.290;2022-11-11T02:11:41;100352.01;;;3.01;82.58
34235;BME280;20500;49.856;20.290;2022-11-11T02:15:06;100355.91;;;2.99;82.71
34235;BME280;20500;49.856;20.290;2022-11-11T02:18:13;100353.02;;;2.99;82.66
34235;BME280;20500;49.856;20.290;2022-11-11T02:21:19;100350.61;;;2.98;82.73
34235;BME280;20500;49.856;20.290;2022-11-11T02:24:30;100354.84;;;2.97;82.73
34235;BME280;20500;49.856;20.290;2022-11-11T02:27:39;100356.73;;;2.95;82.87
34235;BME280;20500;49.856;20.290;2022-11-11T02:30:48;100363.52;;;2.92;82.96
34235;BME280;20500;49.856;20.290;2022-11-11T02:33:52;100361.84;;;2.94;82.85
34235;BME280;20500;49.856;20.290;2022-11-11T02:37:00;100363.29;;;2.93;82.88
34235;BME280;20500;49.856;20.290;2022-11-11T02:40:10;100366.92;;;2.92;82.76
34235;BME280;20500;49.856;20.290;2022-11-11T02:43:17;100369.34;;;2.91;82.80
34235;BME280;20500;49.856;20.290;2022-11-11T02:46:24;100370.22;;;2.91;82.70
34235;BME280;20500;49.856;20.290;2022-11-11T02:49:30;100371.45;;;2.92;82.92
34235;BME280;20500;49.856;20.290;2022-11-11T02:52:37;100375.18;;;2.95;82.86
34235;BME280;20500;49.856;20.290;2022-11-11T02:55:43;100381.27;;;2.96;82.76
34235;BME280;20500;49.856;20.290;2022-11-11T02:58:50;100387.83;;;2.97;82.78
34235;BME280;20500;49.856;20.290;2022-11-11T03:01:54;100382.29;;;2.99;82.95
34235;BME280;20500;49.856;20.290;2022-11-11T03:05:01;100381.05;;;3.04;83.06
34235;BME280;20500;49.856;20.290;2022-11-11T03:08:08;100379.89;;;3.08;83.04
34235;BME280;20500;49.856;20.290;2022-11-11T03:11:14;100389.43;;;3.08;82.86
34235;BME280;20500;49.856;20.290;2022-11-11T03:14:32;100391.87;;;3.06;82.85
34235;BME280;20500;49.856;20.290;2022-11-11T03:17:38;100389.89;;;3.01;82.79
34235;BME280;20500;49.856;20.290;2022-11-11T03:20:46;100384.02;;;2.97;83.05
34235;BME280;20500;49.856;20.290;2022-11-11T03:24:30;100380.67;;;3.02;83.32
34235;BME280;20500;49.856;20.290;2022-11-11T03:27:50;100381.30;;;3.06;83.21
34235;BME280;20500;49.856;20.290;2022-11-11T03:30:57;100376.17;;;3.10;83.19
34235;BME280;20500;49.856;20.290;2022-11-11T03:34:08;100379.90;;;3.13;83.28
34235;BME280;20500;49.856;20.290;2022-11-11T03:37:23;100381.01;;;3.18;83.30
34235;BME280;20500;49.856;20.290;2022-11-11T03:40:48;100377.85;;;3.22;83.36
34235;BME280;20500;49.856;20.290;2022-11-11T03:43:54;100375.36;;;3.27;83.42
34235;BME280;20500;49.856;20.290;2022-11-11T03:47:00;100375.11;;;3.31;83.48
34235;BME280;20500;49.856;20.290;2022-11-11T03:50:06;100373.51;;;3.36;83.47
34235;BME280;20500;49.856;20.290;2022-11-11T03:53:12;100375.29;;;3.39;83.51
34235;BME280;20500;49.856;20.290;2022-11-11T03:56:19;100378.83;;;3.42;83.61
34235;BME280;20500;49.856;20.290;2022-11-11T03:59:26;100379.92;;;3.48;83.73
34235;BME280;20500;49.856;20.290;2022-11-11T04:02:30;100375.51;;;3.52;83.50
34235;BME280;20500;49.856;20.290;2022-11-11T04:05:54;100376.38;;;3.55;83.55
34235;BME280;20500;49.856;20.290;2022-11-11T04:09:18;100377.67;;;3.59;83.73
34235;BME280;20500;49.856;20.290;2022-11-11T04:12:43;100379.88;;;3.61;83.93
34235;BME280;20500;49.856;20.290;2022-11-11T04:16:18;100378.87;;;3.68;84.03
34235;BME280;20500;49.856;20.290;2022-11-11T04:19:23;100380.10;;;3.71;83.85
34235;BME280;20500;49.856;20.290;2022-11-11T04:22:47;100380.70;;;3.73;83.96
34235;BME280;20500;49.856;20.290;2022-11-11T04:26:00;100381.65;;;3.69;84.00
34235;BME280;20500;49.856;20.290;2022-11-11T04:29:07;100382.09;;;3.71;84.03
34235;BME280;20500;49.856;20.290;2022-11-11T04:32:30;100377.06;;;3.71;84.05
34235;BME280;20500;49.856;20.290;2022-11-11T04:35:50;100370.59;;;3.76;84.16
34235;BME280;20500;49.856;20.290;2022-11-11T04:38:57;100373.76;;;3.82;84.22
34235;BME280;20500;49.856;20.290;2022-11-11T04:42:20;100374.87;;;3.86;84.29
34235;BME280;20500;49.856;20.290;2022-11-11T04:45:25;100376.63;;;3.90;84.10
34235;BME280;20500;49.856;20.290;2022-11-11T04:48:35;100376.84;;;3.92;84.19
34235;BME280;20500;49.856;20.290;2022-11-11T04:51:40;100381.05;;;3.96;84.19
34235;BME280;20500;49.856;20.290;2022-11-11T04:55:04;100378.15;;;3.99;84.27
34235;BME280;20500;49.856;20.290;2022-11-11T04:58:30;100376.23;;;4.03;84.37
34235;BME280;20500;49.856;20.290;2022-11-11T05:01:36;100371.59;;;4.05;84.42
34235;BME280;20500;49.856;20.290;2022-11-11T05:04:59;100370.15;;;4.08;84.49
34235;BME280;20500;49.856;20.290;2022-11-11T05:08:06;100374.88;;;4.09;84.35
34235;BME280;20500;49.856;20.290;2022-11-11T05:11:30;100379.41;;;4.11;84.50
34235;BME280;20500;49.856;20.290;2022-11-11T05:14:37;100384.16;;;4.10;84.39
34235;BME280;20500;49.856;20.290;2022-11-11T05:18:00;100389.92;;;4.10;84.71
34235;BME280;20500;49.856;20.290;2022-11-11T05:21:26;100393.75;;;4.07;84.51
34235;BME280;20500;49.856;20.290;2022-11-11T05:24:33;100393.92;;;4.04;84.76
34235;BME280;20500;49.856;20.290;2022-11-11T05:27:57;100407.79;;;4.09;84.80
34235;BME280;20500;49.856;20.290;2022-11-11T05:31:03;100415.15;;;4.11;84.89
34235;BME280;20500;49.856;20.290;2022-11-11T05:34:10;100416.77;;;4.14;84.93
34235;BME280;20500;49.856;20.290;2022-11-11T05:37:15;100411.24;;;4.19;84.94
34235;BME280;20500;49.856;20.290;2022-11-11T05:40:21;100403.06;;;4.22;85.01
34235;BME280;20500;49.856;20.290;2022-11-11T05:43:26;100406.52;;;4.27;85.05
34235;BME280;20500;49.856;20.290;2022-11-11T05:46:32;100406.70;;;4.32;85.22
34235;BME280;20500;49.856;20.290;2022-11-11T05:49:37;100410.35;;;4.36;85.31
34235;BME280;20500;49.856;20.290;2022-11-11T05:52:48;100417.11;;;4.39;85.26
34235;BME280;20500;49.856;20.290;2022-11-11T05:55:54;100427.75;;;4.42;85.26
34235;BME280;20500;49.856;20.290;2022-11-11T05:59:01;100428.89;;;4.43;85.29
34235;BME280;20500;49.856;20.290;2022-11-11T06:02:07;100436.44;;;4.46;85.26
34235;BME280;20500;49.856;20.290;2022-11-11T06:05:14;100447.23;;;4.46;85.18
34235;BME280;20500;49.856;20.290;2022-11-11T06:08:20;100452.45;;;4.43;85.26
34235;BME280;20500;49.856;20.290;2022-11-11T06:11:25;100459.83;;;4.43;85.47
34235;BME280;20500;49.856;20.290;2022-11-11T06:14:36;100459.23;;;4.47;85.55
34235;BME280;20500;49.856;20.290;2022-11-11T06:17:41;100454.35;;;4.49;85.54
34235;BME280;20500;49.856;20.290;2022-11-11T06:20:50;100468.12;;;4.53;85.60
34235;BME280;20500;49.856;20.290;2022-11-11T06:23:57;100480.05;;;4.52;85.56
34235;BME280;20500;49.856;20.290;2022-11-11T06:27:04;100480.02;;;4.45;85.50
34235;BME280;20500;49.856;20.290;2022-11-11T06:30:12;100468.18;;;4.39;85.76
34235;BME280;20500;49.856;20.290;2022-11-11T06:33:38;100455.88;;;4.45;86.05
34235;BME280;20500;49.856;20.290;2022-11-11T06:36:45;100455.08;;;4.52;86.02
34235;BME280;20500;49.856;20.290;2022-11-11T06:39:49;100460.80;;;4.55;86.00
34235;BME280;20500;49.856;20.290;2022-11-11T06:42:56;100466.59;;;4.59;85.97
34235;BME280;20500;49.856;20.290;2022-11-11T06:46:00;100459.90;;;4.62;85.80
34235;BME280;20500;49.856;20.290;2022-11-11T06:49:07;100462.59;;;4.64;85.88
34235;BME280;20500;49.856;20.290;2022-11-11T06:52:11;100461.52;;;4.70;86.06
34235;BME280;20500;49.856;20.290;2022-11-11T06:55:18;100457.70;;;4.75;86.22
34235;BME280;20500;49.856;20.290;2022-11-11T06:58:24;100457.89;;;4.82;86.31
34235;BME280;20500;49.856;20.290;2022-11-11T07:01:31;100453.55;;;4.90;86.36
34235;BME280;20500;49.856;20.290;2022-11-11T07:04:36;100453.71;;;4.98;86.38
34235;BME280;20500;49.856;20.290;2022-11-11T07:07:42;100454.89;;;5.04;86.44
34235;BME280;20500;49.856;20.290;2022-11-11T07:10:47;100453.14;;;5.10;86.48
34235;BME280;20500;49.856;20.290;2022-11-11T07:13:54;100452.34;;;5.16;86.51
34235;BME280;20500;49.856;20.290;2022-11-11T07:17:00;100451.69;;;5.20;86.36
34235;BME280;20500;49.856;20.290;2022-11-11T07:20:11;100452.83;;;5.22;86.24
34235;BME280;20500;49.856;20.290;2022-11-11T07:23:18;100447.38;;;5.23;86.36
34235;BME280;20500;49.856;20.290;2022-11-11T07:26:24;100443.68;;;5.21;86.48
34235;BME280;20500;49.856;20.290;2022-11-11T07:29:31;100457.59;;;5.28;86.69
34235;BME280;20500;49.856;20.290;2022-11-11T07:32:35;100458.33;;;5.32;86.65
34235;BME280;20500;49.856;20.290;2022-11-11T07:35:42;100455.30;;;5.34;86.88
34235;BME280;20500;49.856;20.290;2022-11-11T07:38:46;100457.25;;;5.40;87.04
34235;BME280;20500;49.856;20.290;2022-11-11T07:41:53;100457.51;;;5.46;87.03
34235;BME280;20500;49.856;20.290;2022-11-11T07:44:59;100454.15;;;5.52;87.02
34235;BME280;20500;49.856;20.290;2022-11-11T07:48:06;100459.05;;;5.59;86.90
34235;BME280;20500;49.856;20.290;2022-11-11T07:51:13;100456.02;;;5.66;87.00
34235;BME280;20500;49.856;20.290;2022-11-11T07:54:17;100444.25;;;5.69;86.80
34235;BME280;20500;49.856;20.290;2022-11-11T07:57:24;100438.74;;;5.72;87.03
34235;BME280;20500;49.856;20.290;2022-11-11T08:00:28;100441.67;;;5.76;87.12
34235;BME280;20500;49.856;20.290;2022-11-11T08:03:34;100444.31;;;5.82;87.14
34235;BME280;20500;49.856;20.290;2022-11-11T08:06:53;100440.36;;;5.89;87.10
34235;BME280;20500;49.856;20.290;2022-11-11T08:09:58;100436.40;;;5.96;87.22
34235;BME280;20500;49.856;20.290;2022-11-11T08:13:04;100432.61;;;6.03;87.30
34235;BME280;20500;49.856;20.290;2022-11-11T08:16:29;100428.58;;;6.13;87.60
34235;BME280;20500;49.856;20.290;2022-11-11T08:19:35;100417.11;;;6.28;87.77
34235;BME280;20500;49.856;20.290;2022-11-11T08:22:42;100407.82;;;6.43;87.89
34235;BME280;20500;49.856;20.290;2022-11-11T08:26:08;100409.58;;;6.57;88.06
34235;BME280;20500;49.856;20.290;2022-11-11T08:29:14;100413.47;;;6.71;88.12
34235;BME280;20500;49.856;20.290;2022-11-11T08:32:20;100406.39;;;6.83;88.27
34235;BME280;20500;49.856;20.290;2022-11-11T08:35:25;100399.29;;;6.93;88.19
34235;BME280;20500;49.856;20.290;2022-11-11T08:38:35;100404.36;;;6.99;88.12
34235;BME280;20500;49.856;20.290;2022-11-11T08:41:41;100406.49;;;7.03;88.16
34235;BME280;20500;49.856;20.290;2022-11-11T08:44:47;100413.89;;;7.10;88.24
34235;BME280;20500;49.856;20.290;2022-11-11T08:47:52;100416.34;;;7.18;88.32
34235;BME280;20500;49.856;20.290;2022-11-11T08:50:58;100420.42;;;7.25;88.28
34235;BME280;20500;49.856;20.290;2022-11-11T08:54:04;100426.21;;;7.29;88.30
34235;BME280;20500;49.856;20.290;2022-11-11T08:57:11;100437.67;;;7.33;88.52
34235;BME280;20500;49.856;20.290;2022-11-11T09:00:19;100443.41;;;7.38;88.59
34235;BME280;20500;49.856;20.290;2022-11-11T09:03:27;100439.23;;;7.42;88.61
34235;BME280;20500;49.856;20.290;2022-11-11T09:06:32;100438.17;;;7.48;88.73
34235;BME280;20500;49.856;20.290;2022-11-11T09:09:38;100439.69;;;7.54;88.56
34235;BME280;20500;49.856;20.290;2022-11-11T09:12:43;100441.78;;;7.59;88.60
34235;BME280;20500;49.856;20.290;2022-11-11T09:15:50;100437.59;;;7.66;88.54
34235;BME280;20500;49.856;20.290;2022-11-11T09:18:58;100437.25;;;7.76;88.73
34235;BME280;20500;49.856;20.290;2022-11-11T09:22:02;100441.73;;;7.89;88.92
34235;BME280;20500;49.856;20.290;2022-11-11T09:25:10;100439.05;;;8.06;89.03
34235;BME280;20500;49.856;20.290;2022-11-11T09:28:18;100436.45;;;8.23;89.06
34235;BME280;20500;49.856;20.290;2022-11-11T09:31:24;100421.08;;;8.40;89.08
34235;BME280;20500;49.856;20.290;2022-11-11T09:34:49;100410.25;;;8.58;89.15
34235;BME280;20500;49.856;20.290;2022-11-11T09:37:56;100402.60;;;8.75;89.25
34235;BME280;20500;49.856;20.290;2022-11-11T09:41:11;100394.41;;;8.91;89.32
34235;BME280;20500;49.856;20.290;2022-11-11T09:44:32;100399.27;;;9.08;89.12
34235;BME280;20500;49.856;20.290;2022-11-11T09:47:44;100405.50;;;9.23;89.10
34235;BME280;20500;49.856;20.290;2022-11-11T09:50:56;100402.50;;;9.39;88.89
34235;BME280;20500;49.856;20.290;2022-11-11T09:54:10;100403.55;;;9.56;88.65
34235;BME280;20500;49.856;20.290;2022-11-11T09:57:32;100404.91;;;9.72;88.46
34235;BME280;20500;49.856;20.290;2022-11-11T10:00:43;100398.55;;;9.87;88.30
34235;BME280;20500;49.856;20.290;2022-11-11T10:03:57;100398.36;;;10.01;88.17
34235;BME280;20500;49.856;20.290;2022-11-11T10:07:09;100399.14;;;10.12;88.10
34235;BME280;20500;49.856;20.290;2022-11-11T10:10:24;100398.54;;;10.22;87.96
34235;BME280;20500;49.856;20.290;2022-11-11T10:13:35;100396.73;;;10.31;87.75
34235;BME280;20500;49.856;20.290;2022-11-11T10:16:47;100403.71;;;10.40;87.74
34235;BME280;20500;49.856;20.290;2022-11-11T10:20:05;100411.01;;;10.49;87.82
34235;BME280;20500;49.856;20.290;2022-11-11T10:23:17;100399.79;;;10.58;87.41
34235;BME280;20500;49.856;20.290;2022-11-11T10:26:34;100396.82;;;10.64;87.32
34235;BME280;20500;49.856;20.290;2022-11-11T10:29:43;100397.19;;;10.69;86.87
34235;BME280;20500;49.856;20.290;2022-11-11T10:32:55;100397.23;;;10.75;86.83
34235;BME280;20500;49.856;20.290;2022-11-11T10:36:04;100402.34;;;10.80;86.54
34235;BME280;20500;49.856;20.290;2022-11-11T10:39:14;100405.27;;;10.85;86.61
34235;BME280;20500;49.856;20.290;2022-11-11T10:42:23;100394.76;;;10.92;86.78
34235;BME280;20500;49.856;20.290;2022-11-11T10:45:34;100385.34;;;11.03;86.36
34235;BME280;20500;49.856;20.290;2022-11-11T10:48:49;100392.38;;;11.18;86.12
34235;BME280;20500;49.856;20.290;2022-11-11T10:52:00;100393.04;;;11.35;86.10
34235;BME280;20500;49.856;20.290;2022-11-11T10:55:13;100388.20;;;11.51;85.56
34235;BME280;20500;49.856;20.290;2022-11-11T10:58:25;100386.01;;;11.65;85.22
34235;BME280;20500;49.856;20.290;2022-11-11T11:01:36;100383.48;;;11.73;84.92
34235;BME280;20500;49.856;20.290;2022-11-11T11:04:46;100385.01;;;11.80;84.76
34235;BME280;20500;49.856;20.290;2022-11-11T11:07:58;100385.98;;;11.85;84.44
34235;BME280;20500;49.856;20.290;2022-11-11T11:11:08;100377.84;;;11.88;84.10
34235;BME280;20500;49.856;20.290;2022-11-11T11:14:20;100377.69;;;11.94;84.06
34235;BME280;20500;49.856;20.290;2022-11-11T11:17:35;100380.67;;;12.06;83.97
34235;BME280;20500;49.856;20.290;2022-11-11T11:20:55;100382.90;;;12.13;83.52
34235;BME280;20500;49.856;20.290;2022-11-11T11:24:02;100374.11;;;12.20;83.26
34235;BME280;20500;49.856;20.290;2022-11-11T11:27:09;100361.46;;;12.28;83.18
34235;BME280;20500;49.856;20.290;2022-11-11T11:30:18;100361.55;;;12.36;83.04
34235;BME280;20500;49.856;20.290;2022-11-11T11:33:25;100361.64;;;12.47;82.94
34235;BME280;20500;49.856;20.290;2022-11-11T11:36:31;100358.75;;;12.59;82.92
34235;BME280;20500;49.856;20.290;2022-11-11T11:39:39;100351.30;;;12.69;82.70
34235;BME280;20500;49.856;20.290;2022-11-11T11:42:45;100348.02;;;12.80;82.52
34235;BME280;20500;49.856;20.290;2022-11-11T11:45:57;100354.17;;;12.93;82.43
34235;BME280;20500;49.856;20.290;2022-11-11T11:49:22;100358.09;;;13.02;81.91
34235;BME280;20500;49.856;20.290;2022-11-11T11:52:35;100355.23;;;13.10;81.72
34235;BME280;20500;49.856;20.290;2022-11-11T11:55:50;100345.22;;;13.20;81.73
34235;BME280;20500;49.856;20.290;2022-11-11T11:59:07;100329.43;;;13.32;81.39
34235;BME280;20500;49.856;20.290;2022-11-11T12:02:28;100322.27;;;13.46;81.14
34235;BME280;20500;49.856;20.290;2022-11-11T12:05:42;100326.67;;;13.62;80.98
34235;BME280;20500;49.856;20.290;2022-11-11T12:09:02;100330.95;;;13.76;80.75
34235;BME280;20500;49.856;20.290;2022-11-11T12:12:19;100339.36;;;13.84;80.14
34235;BME280;20500;49.856;20.290;2022-11-11T12:15:35;100341.55;;;13.87;79.79
34235;BME280;20500;49.856;20.290;2022-11-11T12:18:52;100340.33;;;13.89;79.54
34235;BME280;20500;49.856;20.290;2022-11-11T12:22:10;100344.55;;;13.88;79.23
34235;BME280;20500;49.856;20.290;2022-11-11T12:25:36;100348.60;;;13.86;79.20
34235;BME280;20500;49.856;20.290;2022-11-11T12:28:58;100348.56;;;13.84;78.85
34235;BME280;20500;49.856;20.290;2022-11-11T12:32:29;100350.96;;;13.83;78.91
34235;BME280;20500;49.856;20.290;2022-11-11T12:35:51;100337.92;;;13.84;78.77
34235;BME280;20500;49.856;20.290;2022-11-11T12:39:05;100329.58;;;13.84;78.33
34235;BME280;20500;49.856;20.290;2022-11-11T12:42:19;100330.67;;;13.84;77.96
34235;BME280;20500;49.856;20.290;2022-11-11T12:45:37;100325.27;;;13.83;77.91
34235;BME280;20500;49.856;20.290;2022-11-11T12:48:55;100320.69;;;13.83;77.64
34235;BME280;20500;49.856;20.290;2022-11-11T12:52:15;100325.58;;;13.82;77.33
34235;BME280;20500;49.856;20.290;2022-11-11T12:55:29;100326.98;;;13.81;77.25
34235;BME280;20500;49.856;20.290;2022-11-11T12:58:46;100320.58;;;13.79;77.04
34235;BME280;20500;49.856;20.290;2022-11-11T13:02:07;100321.27;;;13.78;77.01
34235;BME280;20500;49.856;20.290;2022-11-11T13:05:20;100315.52;;;13.76;76.76
34235;BME280;20500;49.856;20.290;2022-11-11T13:08:43;100314.54;;;13.72;76.43
34235;BME280;20500;49.856;20.290;2022-11-11T13:12:00;100307.97;;;13.65;76.25
34235;BME280;20500;49.856;20.290;2022-11-11T13:15:17;100302.33;;;13.60;75.96
34235;BME280;20500;49.856;20.290;2022-11-11T13:18:29;100301.14;;;13.56;75.85
34235;BME280;20500;49.856;20.290;2022-11-11T13:21:46;100304.29;;;13.52;75.75
34235;BME280;20500;49.856;20.290;2022-11-11T13:24:54;100299.33;;;13.49;75.75
34235;BME280;20500;49.856;20.290;2022-11-11T13:28:05;100293.20;;;13.46;75.42
34235;BME280;20500;49.856;20.290;2022-11-11T13:31:20;100297.33;;;13.39;75.26
34235;BME280;20500;49.856;20.290;2022-11-11T13:34:32;100297.34;;;13.34;75.15
34235;BME280;20500;49.856;20.290;2022-11-11T13:37:40;100300.13;;;13.29;75.03
34235;BME280;20500;49.856;20.290;2022-11-11T13:40:52;100302.84;;;13.23;74.93
34235;BME280;20500;49.856;20.290;2022-11-11T13:44:01;100298.44;;;13.17;74.78
34235;BME280;20500;49.856;20.290;2022-11-11T13:47:15;100294.47;;;13.12;74.77
34235;BME280;20500;49.856;20.290;2022-11-11T13:50:28;100294.57;;;13.08;74.59
34235;BME280;20500;49.856;20.290;2022-11-11T13:53:36;100289.27;;;13.03;74.34
34235;BME280;20500;49.856;20.290;2022-11-11T13:56:45;100291.27;;;12.98;74.28
34235;BME280;20500;49.856;20.290;2022-11-11T13:59:57;100292.39;;;12.93;74.19
34235;BME280;20500;49.856;20.290;2022-11-11T14:03:35;100292.92;;;12.88;74.20
34235;BME280;20500;49.856;20.290;2022-11-11T14:06:57;100293.77;;;12.84;74.02
34235;BME280;20500;49.856;20.290;2022-11-11T14:10:07;100292.63;;;12.81;74.02
34235;BME280;20500;49.856;20.290;2022-11-11T14:13:37;100300.06;;;12.78;73.95
34235;BME280;20500;49.856;20.290;2022-11-11T14:17:01;100300.09;;;12.73;73.77
34235;BME280;20500;49.856;20.290;2022-11-11T14:20:36;100308.95;;;12.68;73.77
34235;BME280;20500;49.856;20.290;2022-11-11T14:23:44;100314.53;;;12.63;73.56
34235;BME280;20500;49.856;20.290;2022-11-11T14:27:02;100315.64;;;12.58;73.57
34235;BME280;20500;49.856;20.290;2022-11-11T14:30:27;100322.11;;;12.52;73.46
34235;BME280;20500;49.856;20.290;2022-11-11T14:33:43;100324.13;;;12.45;73.47
34235;BME280;20500;49.856;20.290;2022-11-11T14:36:54;100334.88;;;12.40;73.35
34235;BME280;20500;49.856;20.290;2022-11-11T14:40:01;100344.92;;;12.36;73.39
34235;BME280;20500;49.856;20.290;2022-11-11T14:43:35;100349.05;;;12.32;73.33
34235;BME280;20500;49.856;20.290;2022-11-11T14:50:43;100349.73;;;12.17;73.05
34235;BME280;20500;49.856;20.290;2022-11-11T14:53:50;100345.45;;;12.09;73.26
34235;BME280;20500;49.856;20.290;2022-11-11T14:57:00;100347.69;;;12.01;73.19
34235;BME280;20500;49.856;20.290;2022-11-11T15:00:12;100353.34;;;11.92;73.07
34235;BME280;20500;49.856;20.290;2022-11-11T15:03:25;100354.87;;;11.85;73.12
34235;BME280;20500;49.856;20.290;2022-11-11T15:06:34;100353.70;;;11.75;73.05
34235;BME280;20500;49.856;20.290;2022-11-11T15:09:59;100353.85;;;11.68;73.01
34235;BME280;20500;49.856;20.290;2022-11-11T15:17:04;100356.73;;;11.51;73.14
34235;BME280;20500;49.856;20.290;2022-11-11T15:20:30;100352.95;;;11.40;72.92
34235;BME280;20500;49.856;20.290;2022-11-11T15:23:44;100357.26;;;11.24;73.05
34235;BME280;20500;49.856;20.290;2022-11-11T15:26:59;100360.15;;;11.08;73.10
34235;BME280;20500;49.856;20.290;2022-11-11T15:30:14;100359.21;;;10.94;73.05
34235;BME280;20500;49.856;20.290;2022-11-11T15:33:25;100362.54;;;10.78;73.10
34235;BME280;20500;49.856;20.290;2022-11-11T15:36:43;100358.84;;;10.62;73.30
34235;BME280;20500;49.856;20.290;2022-11-11T15:39:57;100357.41;;;10.49;73.43
34235;BME280;20500;49.856;20.290;2022-11-11T15:43:04;100350.38;;;10.36;73.39
34235;BME280;20500;49.856;20.290;2022-11-11T15:46:22;100353.08;;;10.23;73.34
34235;BME280;20500;49.856;20.290;2022-11-11T15:49:41;100362.92;;;10.13;73.62
34235;BME280;20500;49.856;20.290;2022-11-11T15:52:52;100374.66;;;10.04;73.44
34235;BME280;20500;49.856;20.290;2022-11-11T15:55:59;100376.15;;;9.90;73.40
34235;BME280;20500;49.856;20.290;2022-11-11T15:59:18;100373.31;;;9.76;73.39
34235;BME280;20500;49.856;20.290;2022-11-11T16:02:28;100368.08;;;9.64;73.44
34235;BME280;20500;49.856;20.290;2022-11-11T16:05:36;100373.10;;;9.53;73.42
34235;BME280;20500;49.856;20.290;2022-11-11T16:08:44;100369.18;;;9.43;73.60
34235;BME280;20500;49.856;20.290;2022-11-11T16:11:54;100363.86;;;9.32;73.43
34235;BME280;20500;49.856;20.290;2022-11-11T16:15:04;100369.08;;;9.21;73.51
34235;BME280;20500;49.856;20.290;2022-11-11T16:18:19;100365.27;;;9.13;73.66
34235;BME280;20500;49.856;20.290;2022-11-11T16:21:29;100364.21;;;9.09;73.84
34235;BME280;20500;49.856;20.290;2022-11-11T16:24:38;100361.86;;;9.07;73.83
34235;BME280;20500;49.856;20.290;2022-11-11T16:27:46;100360.42;;;9.01;73.83
34235;BME280;20500;49.856;20.290;2022-11-11T16:30:53;100366.64;;;8.96;73.90
34235;BME280;20500;49.856;20.290;2022-11-11T16:34:01;100372.23;;;8.91;73.86
34235;BME280;20500;49.856;20.290;2022-11-11T16:37:28;100374.52;;;8.83;73.87
34235;BME280;20500;49.856;20.290;2022-11-11T16:40:44;100378.67;;;8.73;73.82
34235;BME280;20500;49.856;20.290;2022-11-11T16:43:51;100373.55;;;8.64;73.93
34235;BME280;20500;49.856;20.290;2022-11-11T16:46:58;100376.49;;;8.55;73.85